EPWAEPKK

Guest
Details From EPWA - Warsaw Okecie - Frederic Chopin
To EPKK - Balice
Flight Number -
Tags Routegen Generated
Created
Modified
Stats Distance 138 nm / 255 km
Max Altitude 1,500 ft / 457 m
Waypoints 5
Social Downloads 7
Likes 0
Share VATSIM

Download

Looking for another format? Having issues loading an existing format? Contact us
Advertisement - Login to hide

Notes

Departing runway 15 EPWA. Arriving runway 7 EPKK.

Route

EPWA +52.09_+021.04 +50.86_+020.40 +50.11_+020.02 EPKK

ID Type Via Altitude Latitude Longitude Leg Dist Tot Dist Heading (true) Name
O EPWA APT - 1,500 ft / 457 m 52.14936˚ 20.98144˚ - 0 nm - -
+52.09_+021.04 DME - 1,500 ft / 457 m 52.08557˚ 21.03707˚ 4 nm 4 nm 152° / 152° -
+50.86_+020.40 DME - 1,500 ft / 457 m 50.86328˚ 20.39923˚ 77 nm 81 nm 198° / 198° -
+50.11_+020.02 DME - 1,500 ft / 457 m 50.11069˚ 20.02348˚ 47 nm 128 nm 198° / 197° -
O EPKK APT - 0 ft / 0 m 50.08024˚ 19.80291˚ 8 nm 137 nm 258° / 258° -

Altitude Profile

Advertisement - Login to hide

EPWA

Details ICAO EPWA (WAW)
Name WARSZAWA Okecie
Region Poland
Timezone Europe/Warsaw (UTC+2.0)
Stats Elevation 328 ft / 100 m (AMSL)
Location 52.165091° 20.966923°
Runways 2
Magnetic Variation 5.859° E

METAR

EPWA 270530Z 12005KT 100V160 CAVOK 18/15 Q1023 NOSIG

Decode

TAF

TAF EPWA 270230Z 2703/2803 VRB04KT CAVOK PROB40 2703/2705 3000 BR BECMG 2706/2708 12010KT

Decode

Departure Runways

ID Width Length Bearing (true) Bearing (mag) Surface Threshold Offset Overrun Length
11 164 ft / 50 m 9,163 ft / 2,793 m 114.64° 108.78° Asphalt 0 ft / 0 m 476 ft / 145 m
15 197 ft / 60 m 12,112 ft / 3,692 m 151.85° 145.99° Asphalt 0 ft / 0 m 0 ft / 0 m
29 164 ft / 50 m 9,163 ft / 2,793 m 294.67° 288.81° Asphalt 1,608 ft / 490 m 0 ft / 0 m
33 197 ft / 60 m 12,112 ft / 3,692 m 331.87° 326.01° Asphalt 0 ft / 0 m 0 ft / 0 m

EPKK

Details ICAO EPKK (KRK)
Name BALICE
Region Poland
Timezone Europe/Warsaw (UTC+2.0)
Stats Elevation 791 ft / 241 m (AMSL)
Location 50.077821° 19.785503°
Runways 1
Magnetic Variation 5.257° E

METAR

EPKK 270530Z VRB02KT 8000 NSC 18/16 Q1022

Decode

TAF

TAF EPKK 270230Z 2703/2803 06006KT CAVOK PROB30 TEMPO 2703/2705 3500 BR TEMPO 2712/2720 SCT033CB PROB30 TEMPO 2712/2716 VRB15G30KT 4000 TSRA BKN014CB TEMPO 2723/2803 2500 BR

Decode

Destination Runways

ID Width Length Bearing (true) Bearing (mag) Surface Threshold Offset Overrun Length
07 197 ft / 60 m 8,343 ft / 2,543 m 77.75° 72.49° Concrete 0 ft / 0 m 0 ft / 0 m
25 197 ft / 60 m 8,343 ft / 2,543 m 257.77° 252.51° Concrete 784 ft / 239 m 0 ft / 0 m

Approach Navaids

Runway Type Ident Frequency Range Bearing (true) Bearing (mag) Slope Elevation
25 Localiser KRW 110.30 MHz 18 nm / 33 km 257.73° 252.48° - 791 ft / 241 m (AMSL)
25 Glidescope KRW 110.30 MHz 10 nm / 19 km 257.76° 252.50° 3.00° 791 ft / 241 m (AMSL)
25 DME KRW 110.30 MHz 18 nm / 33 km - - - 827 ft / 252 m (AMSL)

Popular Alternatives